Time;durP1;ratioP1;P1;durP2;ratioP2;P2;SDS_P1;SDS_P2;PMS_P1;PMS_P2;Temp;Humidity;BMP_temperature;BMP_pressure;BME280_temperature;BME280_humidity;BME280_pressure;Samples;Min_cycle;Max_cycle;Signal;HPM_P1;HPM_P2
2022/05/27 00:03:04;;;;;;;11.05;4.13;;;17.00;69.50;;;;;;9187544;19;20015;-73
2022/05/27 00:06:10;;;;;;;11.85;4.35;;;17.00;69.60;;;;;;9185615;19;20378;-73
2022/05/27 00:09:18;;;;;;;14.20;4.75;;;17.00;69.80;;;;;;9185858;19;20026;-73
2022/05/27 00:12:23;;;;;;;12.48;4.90;;;16.90;69.90;;;;;;9185160;19;20086;-70
2022/05/27 00:15:32;;;;;;;9.32;5.18;;;17.00;70.00;;;;;;9182606;19;20365;-70
2022/05/27 00:18:37;;;;;;;10.82;3.47;;;16.90;70.30;;;;;;9185200;19;20006;-70
2022/05/27 00:21:46;;;;;;;4.05;1.40;;;16.90;70.30;;;;;;9181929;19;20024;-70
2022/05/27 00:24:53;;;;;;;9.60;2.05;;;16.90;70.30;;;;;;9185456;19;20014;-68
2022/05/27 00:27:59;;;;;;;3.63;1.17;;;16.80;70.40;;;;;;9184884;19;20494;-69
2022/05/27 00:31:05;;;;;;;3.47;1.10;;;16.80;70.30;;;;;;9187167;19;20022;-69
2022/05/27 00:34:13;;;;;;;3.03;0.70;;;16.70;70.40;;;;;;9184045;19;20011;-70
2022/05/27 00:37:19;;;;;;;2.35;0.88;;;16.60;70.50;;;;;;9184301;19;20010;-70
2022/05/27 00:40:28;;;;;;;2.92;0.75;;;16.60;70.60;;;;;;9186097;19;20376;-71
2022/05/27 00:43:33;;;;;;;2.10;0.70;;;16.50;70.70;;;;;;9184108;19;20011;-71
2022/05/27 00:46:46;;;;;;;1.88;0.90;;;16.40;70.80;;;;;;9185508;19;20007;-73
2022/05/27 00:49:56;;;;;;;2.40;0.73;;;16.30;71.00;;;;;;9184783;19;20007;-72
2022/05/27 00:53:06;;;;;;;3.28;1.10;;;16.30;71.10;;;;;;9184189;19;20011;-72
2022/05/27 00:56:16;;;;;;;6.18;1.83;;;16.20;71.30;;;;;;9182120;19;20015;-73
2022/05/27 00:59:26;;;;;;;3.08;1.90;;;16.20;71.50;;;;;;9184268;19;20018;-72
2022/05/27 01:02:34;;;;;;;7.55;2.28;;;16.20;71.50;;;;;;9181929;19;20019;-72
2022/05/27 01:05:48;;;;;;;8.68;2.22;;;16.20;71.70;;;;;;9185905;19;20014;-73
2022/05/27 01:08:55;;;;;;;5.38;2.13;;;16.20;71.90;;;;;;9182066;19;20010;-72
2022/05/27 01:12:20;;;;;;;2.58;2.08;;;16.10;71.90;;;;;;9184263;19;20363;-73
2022/05/27 01:22:46;;;;;;;8.13;2.13;;;16.00;72.40;;;;;;9179704;19;20048;-73
2022/05/27 01:26:21;;;;;;;3.75;1.30;;;16.00;72.50;;;;;;9183423;19;20037;-72
2022/05/27 01:30:04;;;;;;;5.20;2.03;;;16.00;72.60;;;;;;9184694;19;20484;-73
2022/05/27 01:33:25;;;;;;;4.35;1.70;;;16.00;72.60;;;;;;9182421;19;20090;-73
2022/05/27 01:36:50;;;;;;;2.97;1.38;;;15.90;72.60;;;;;;9180447;19;20019;-73
2022/05/27 01:40:05;;;;;;;3.05;1.60;;;15.90;72.80;;;;;;9181986;19;20018;-73
2022/05/27 01:43:19;;;;;;;3.15;1.52;;;15.90;72.80;;;;;;9182984;19;20523;-72
2022/05/27 01:46:33;;;;;;;3.40;1.60;;;15.90;72.90;;;;;;9183668;19;20018;-73
2022/05/27 01:49:47;;;;;;;5.68;1.63;;;15.90;72.80;;;;;;9182902;19;20010;-72
2022/05/27 01:52:58;;;;;;;5.90;1.80;;;15.90;73.00;;;;;;9183521;19;20022;-72
2022/05/27 01:56:14;;;;;;;5.45;1.67;;;15.90;73.00;;;;;;9180383;19;20033;-72
2022/05/27 01:59:25;;;;;;;3.70;2.10;;;15.80;73.10;;;;;;9184127;19;20031;-73
2022/05/27 02:02:35;;;;;;;4.70;2.50;;;15.80;73.10;;;;;;9181901;19;20006;-73
2022/05/27 02:05:50;;;;;;;5.70;1.70;;;15.80;73.30;;;;;;9182772;19;20044;-74
2022/05/27 02:09:00;;;;;;;8.85;2.15;;;15.80;73.50;;;;;;9180944;19;20030;-72
2022/05/27 02:12:11;;;;;;;9.68;2.22;;;15.80;73.50;;;;;;9184610;19;20045;-74
2022/05/27 02:15:20;;;;;;;9.13;3.10;;;15.70;73.50;;;;;;9189435;19;20480;-73
2022/05/27 02:18:29;;;;;;;9.20;2.47;;;15.70;73.60;;;;;;9192216;19;20524;-72
2022/05/27 02:21:46;;;;;;;8.70;2.72;;;15.70;73.70;;;;;;9188143;19;20019;-72
2022/05/27 02:24:57;;;;;;;6.20;2.47;;;15.70;73.90;;;;;;9191496;19;20351;-72
2022/05/27 02:28:20;;;;;;;10.68;3.00;;;15.70;73.90;;;;;;9192901;19;20011;-72
2022/05/27 02:31:33;;;;;;;14.10;3.20;;;15.60;74.20;;;;;;9190543;19;20460;-74
2022/05/27 02:38:11;;;;;;;8.82;2.97;;;15.60;74.10;;;;;;9185964;19;20463;-72
2022/05/27 02:41:26;;;;;;;15.93;3.55;;;15.60;74.20;;;;;;9190321;19;20078;-73
2022/05/27 02:44:41;;;;;;;10.52;3.20;;;15.60;74.30;;;;;;9191567;19;20499;-72
2022/05/27 02:47:55;;;;;;;8.65;3.05;;;15.60;74.50;;;;;;9189721;19;20022;-72
2022/05/27 02:51:05;;;;;;;10.15;3.45;;;15.60;74.50;;;;;;9188713;19;20033;-72
2022/05/27 02:54:26;;;;;;;8.02;3.17;;;15.60;74.40;;;;;;9188286;19;20049;-73
2022/05/27 02:57:38;;;;;;;10.68;3.20;;;15.60;74.70;;;;;;9189394;19;20090;-74
2022/05/27 03:00:47;;;;;;;9.80;3.33;;;15.50;74.50;;;;;;9189733;19;20026;-73
2022/05/27 03:03:53;;;;;;;7.30;2.85;;;15.50;74.70;;;;;;9190720;19;20018;-72
2022/05/27 03:07:05;;;;;;;7.60;2.85;;;15.50;74.60;;;;;;9187494;19;20011;-71
2022/05/27 03:10:29;;;;;;;7.80;3.17;;;15.50;74.80;;;;;;9188735;19;20010;-73
2022/05/27 03:13:58;;;;;;;6.57;2.92;;;15.50;75.00;;;;;;9188327;19;20014;-72
2022/05/27 03:17:18;;;;;;;8.88;2.80;;;15.50;75.10;;;;;;9185317;19;20348;-72
2022/05/27 03:20:38;;;;;;;10.05;3.05;;;15.40;74.90;;;;;;9190318;19;20014;-72
2022/05/27 03:23:56;;;;;;;12.23;3.15;;;15.40;74.90;;;;;;9188052;19;20471;-72
2022/05/27 03:27:20;;;;;;;8.32;3.00;;;15.40;74.90;;;;;;9188715;19;20045;-72
2022/05/27 03:30:31;;;;;;;11.70;3.40;;;15.40;75.00;;;;;;9187660;19;20038;-73
2022/05/27 03:33:46;;;;;;;11.52;3.30;;;15.40;74.90;;;;;;9187390;19;20487;-72
2022/05/27 03:36:57;;;;;;;11.68;3.13;;;15.30;75.10;;;;;;9184528;19;20021;-71
2022/05/27 03:40:10;;;;;;;10.32;3.28;;;15.30;75.10;;;;;;9189477;19;20048;-73
2022/05/27 03:43:22;;;;;;;8.70;3.10;;;15.30;75.10;;;;;;9187266;19;20523;-73
2022/05/27 03:46:36;;;;;;;9.88;2.80;;;15.30;75.10;;;;;;9188881;19;20441;-72
2022/05/27 03:49:43;;;;;;;9.35;2.92;;;15.30;75.30;;;;;;9187056;19;20021;-73
2022/05/27 03:52:50;;;;;;;6.60;2.60;;;15.30;75.20;;;;;;9186456;19;20014;-73
2022/05/27 03:55:55;;;;;;;12.57;3.25;;;15.30;75.20;;;;;;9187549;19;20007;-71
2022/05/27 03:59:04;;;;;;;12.15;4.15;;;15.20;75.20;;;;;;9187823;19;20029;-72
2022/05/27 04:02:10;;;;;;;6.53;3.03;;;15.20;75.40;;;;;;9186685;19;20010;-74
2022/05/27 04:05:18;;;;;;;9.93;3.38;;;15.20;75.30;;;;;;9187982;19;20021;-72
2022/05/27 04:08:23;;;;;;;12.93;3.25;;;15.20;75.40;;;;;;9183472;19;20022;-73
2022/05/27 04:11:30;;;;;;;11.05;3.20;;;15.20;75.40;;;;;;9186645;19;20065;-73
2022/05/27 04:14:40;;;;;;;14.60;3.13;;;15.20;75.50;;;;;;9187520;19;20472;-72
2022/05/27 04:17:45;;;;;;;10.32;3.17;;;15.10;75.60;;;;;;9184747;19;20021;-73
2022/05/27 04:20:50;;;;;;;18.17;4.13;;;15.10;75.60;;;;;;9181290;19;20025;-73
2022/05/27 04:24:01;;;;;;;9.35;3.20;;;15.10;75.60;;;;;;9185519;19;20396;-72
2022/05/27 04:27:12;;;;;;;11.57;3.25;;;15.10;75.80;;;;;;9185540;19;20014;-72
2022/05/27 04:30:20;;;;;;;11.20;3.30;;;15.10;75.80;;;;;;9186078;19;20040;-73
2022/05/27 04:33:30;;;;;;;10.25;3.78;;;15.00;75.80;;;;;;9185287;19;20486;-73
2022/05/27 04:36:38;;;;;;;9.57;3.17;;;15.00;75.70;;;;;;9181439;19;20018;-73
2022/05/27 04:39:47;;;;;;;9.23;3.20;;;15.00;75.80;;;;;;9186959;19;20021;-73
2022/05/27 04:42:52;;;;;;;8.38;2.40;;;15.00;76.00;;;;;;9185881;19;20019;-71
2022/05/27 04:46:01;;;;;;;11.27;4.03;;;15.00;75.90;;;;;;9184942;19;20011;-74
2022/05/27 04:49:07;;;;;;;10.52;2.90;;;15.00;76.00;;;;;;9183995;19;20097;-72
2022/05/27 04:52:13;;;;;;;9.85;2.95;;;14.90;76.00;;;;;;9183942;19;20011;-71
2022/05/27 04:55:20;;;;;;;7.55;2.95;;;15.00;76.10;;;;;;9183966;19;20026;-72
2022/05/27 04:58:26;;;;;;;8.27;2.70;;;14.90;76.10;;;;;;9185048;19;20035;-72
2022/05/27 05:01:34;;;;;;;7.40;2.78;;;14.90;76.20;;;;;;9184708;19;20022;-73
2022/05/27 05:04:39;;;;;;;8.07;2.95;;;14.90;76.30;;;;;;9183353;19;20021;-73
2022/05/27 05:07:47;;;;;;;7.10;2.72;;;14.90;76.20;;;;;;9182720;19;20014;-73
2022/05/27 05:10:53;;;;;;;10.52;3.55;;;14.90;76.30;;;;;;9183620;19;20421;-71
2022/05/27 05:13:58;;;;;;;9.15;3.08;;;14.90;76.40;;;;;;9183119;19;20026;-73
2022/05/27 05:17:07;;;;;;;11.35;3.30;;;14.80;76.40;;;;;;9182113;19;20475;-72
2022/05/27 05:20:15;;;;;;;13.55;4.38;;;14.80;76.60;;;;;;9183080;19;20070;-73
2022/05/27 05:23:23;;;;;;;9.00;2.75;;;14.80;76.60;;;;;;9181042;19;20032;-72
2022/05/27 05:26:28;;;;;;;13.20;3.40;;;14.80;76.70;;;;;;9182430;19;20330;-72
2022/05/27 05:29:33;;;;;;;15.23;3.20;;;14.90;76.70;;;;;;9182151;19;20022;-72
2022/05/27 05:32:41;;;;;;;8.02;3.95;;;14.90;76.80;;;;;;9183653;19;20090;-72
2022/05/27 05:35:46;;;;;;;17.45;3.88;;;14.90;77.00;;;;;;9184845;19;20010;-72
2022/05/27 05:38:51;;;;;;;8.98;3.30;;;14.90;77.00;;;;;;9184349;19;20015;-73
2022/05/27 05:42:03;;;;;;;11.57;3.15;;;15.00;77.20;;;;;;9182085;19;20030;-72
2022/05/27 05:45:10;;;;;;;17.05;4.50;;;15.00;77.30;;;;;;9183545;19;20017;-73
2022/05/27 05:48:23;;;;;;;9.05;3.58;;;15.10;77.30;;;;;;9180878;19;20515;-73
2022/05/27 05:51:28;;;;;;;16.02;3.97;;;15.20;77.50;;;;;;9183660;19;20359;-73
2022/05/27 05:54:39;;;;;;;13.55;3.30;;;15.30;77.50;;;;;;9181690;19;20015;-73
2022/05/27 05:57:46;;;;;;;16.13;2.85;;;15.40;77.60;;;;;;9181584;19;20014;-72
2022/05/27 06:00:52;;;;;;;13.55;3.20;;;15.50;77.50;;;;;;9181153;19;20399;-72
2022/05/27 06:04:00;;;;;;;14.07;3.28;;;15.60;77.50;;;;;;9183571;19;20018;-74
2022/05/27 06:07:09;;;;;;;9.23;2.38;;;15.70;77.50;;;;;;9182014;19;20352;-73
2022/05/27 06:10:19;;;;;;;13.95;2.83;;;15.80;77.20;;;;;;9181408;19;20010;-74
2022/05/27 06:13:25;;;;;;;14.32;2.67;;;15.90;77.10;;;;;;9182708;19;20682;-72
2022/05/27 06:16:34;;;;;;;14.77;2.40;;;16.00;77.50;;;;;;9178839;19;20352;-73
2022/05/27 06:19:45;;;;;;;12.88;2.80;;;16.10;76.80;;;;;;9180273;19;20475;-75
2022/05/27 06:22:50;;;;;;;11.13;2.20;;;16.20;76.60;;;;;;9177543;19;20023;-74
2022/05/27 06:26:01;;;;;;;11.38;2.40;;;16.30;76.50;;;;;;9180841;19;20014;-73
2022/05/27 06:35:51;;;;;;;11.32;1.85;;;16.50;76.10;;;;;;9180745;19;20463;-73
2022/05/27 06:38:59;;;;;;;14.75;2.72;;;16.50;76.50;;;;;;9179925;19;20382;-73
2022/05/27 06:42:04;;;;;;;11.88;3.25;;;16.60;75.60;;;;;;9181765;19;20037;-72
2022/05/27 06:45:35;;;;;;;11.88;2.22;;;16.70;75.40;;;;;;9181817;19;20440;-73
2022/05/27 06:48:45;;;;;;;9.93;2.38;;;16.70;75.20;;;;;;9181882;19;20049;-72
2022/05/27 06:51:59;;;;;;;13.38;2.60;;;16.70;75.00;;;;;;9181780;19;20412;-75
2022/05/27 06:55:05;;;;;;;14.80;2.17;;;16.80;74.70;;;;;;9181167;19;20014;-74
2022/05/27 06:58:10;;;;;;;10.32;2.42;;;16.90;74.50;;;;;;9180219;19;20022;-73
2022/05/27 07:01:18;;;;;;;18.67;2.35;;;17.00;74.30;;;;;;9188378;19;20022;-74
2022/05/27 07:04:27;;;;;;;12.02;2.35;;;17.10;74.20;;;;;;9187185;19;20026;-73
2022/05/27 07:07:35;;;;;;;13.48;1.73;;;17.20;74.00;;;;;;9186121;19;20464;-73
2022/05/27 07:10:40;;;;;;;11.45;1.95;;;17.30;73.60;;;;;;9189906;19;20491;-73
2022/05/27 07:13:51;;;;;;;9.88;2.67;;;17.50;73.40;;;;;;9189365;19;20729;-73
2022/05/27 07:16:58;;;;;;;9.85;2.10;;;17.60;72.80;;;;;;9186735;19;20014;-74
2022/05/27 07:20:22;;;;;;;14.10;2.38;;;17.70;72.60;;;;;;9188301;19;20007;-72
2022/05/27 07:23:37;;;;;;;12.18;2.05;;;17.90;72.30;;;;;;9179141;19;20735;-73
2022/05/27 07:26:43;;;;;;;12.50;2.08;;;18.00;71.90;;;;;;9182506;19;20011;-73
2022/05/27 07:29:51;;;;;;;11.23;2.13;;;18.10;71.60;;;;;;9182036;19;20490;-72
2022/05/27 07:32:56;;;;;;;10.70;2.10;;;18.20;71.40;;;;;;9184537;19;20011;-73
2022/05/27 07:36:04;;;;;;;8.27;2.03;;;18.30;71.00;;;;;;9182172;19;20654;-75
2022/05/27 07:39:12;;;;;;;13.48;1.83;;;18.40;70.70;;;;;;9180231;19;20035;-73
2022/05/27 07:42:17;;;;;;;11.35;2.03;;;18.50;70.00;;;;;;9182944;19;20026;-72
2022/05/27 07:45:27;;;;;;;9.75;2.22;;;18.50;69.70;;;;;;9181469;19;20031;-73
2022/05/27 07:48:33;;;;;;;16.92;2.72;;;18.60;69.30;;;;;;9183857;19;20349;-73
2022/05/27 07:51:38;;;;;;;7.70;1.80;;;18.70;69.00;;;;;;9182874;19;20499;-73
2022/05/27 07:54:57;;;;;;;;;;;;;;;;;;;;;
2022/05/27 07:58:03;;;;;;;8.88;2.55;;;18.80;68.20;;;;;;9178776;19;20014;-73
2022/05/27 08:01:09;;;;;;;9.13;2.00;;;18.90;68.20;;;;;;9189322;19;20011;-75
2022/05/27 08:04:15;;;;;;;10.02;2.40;;;19.00;67.90;;;;;;9186557;19;20021;-70
2022/05/27 08:07:23;;;;;;;13.30;2.20;;;19.10;67.60;;;;;;9184066;19;20519;-77
2022/05/27 08:10:36;;;;;;;15.45;2.53;;;19.20;67.20;;;;;;9187451;19;20020;-77
2022/05/27 08:13:42;;;;;;;16.20;3.22;;;19.30;66.90;;;;;;9186802;19;20519;-76
2022/05/27 08:16:51;;;;;;;12.20;2.45;;;19.40;66.70;;;;;;9185259;19;20018;-76
2022/05/27 08:19:56;;;;;;;11.10;2.25;;;19.50;66.50;;;;;;9184854;19;20056;-77
2022/05/27 08:23:02;;;;;;;10.45;2.17;;;19.60;66.10;;;;;;9181288;19;20022;-76
2022/05/27 08:26:12;;;;;;;15.43;2.10;;;19.70;65.80;;;;;;9183233;19;20044;-79
2022/05/27 08:29:18;;;;;;;12.45;2.47;;;19.80;65.30;;;;;;9181943;19;20029;-78
2022/05/27 08:32:25;;;;;;;12.60;2.40;;;19.90;65.20;;;;;;9183307;19;20098;-74
2022/05/27 08:38:54;;;;;;;14.32;2.25;;;20.00;64.60;;;;;;9148653;19;20022;-75
2022/05/27 08:42:13;;;;;;;10.90;2.05;;;20.00;64.20;;;;;;9180699;19;20045;-75
2022/05/27 08:45:24;;;;;;;13.30;2.72;;;20.00;63.50;;;;;;9181059;19;20468;-75
2022/05/27 08:48:35;;;;;;;7.35;2.13;;;20.00;63.60;;;;;;9160585;19;20116;-74
2022/05/27 08:52:07;;;;;;;10.77;2.28;;;20.10;64.10;;;;;;9178092;19;20535;-75
2022/05/27 09:02:16;;;;;;;16.27;2.78;;;20.10;63.00;;;;;;9180796;19;20480;-74
2022/05/27 09:05:25;;;;;;;10.03;2.23;;;20.10;62.90;;;;;;9180003;19;20511;-74
2022/05/27 09:08:31;;;;;;;12.45;2.90;;;20.10;62.90;;;;;;9179629;19;20518;-73
2022/05/27 09:11:48;;;;;;;13.68;2.85;;;20.10;62.90;;;;;;9178357;19;20006;-70
2022/05/27 09:15:03;;;;;;;13.07;3.63;;;20.20;62.50;;;;;;9181361;19;20423;-73
2022/05/27 09:18:22;;;;;;;12.05;2.00;;;20.20;62.30;;;;;;9175605;19;20329;-74
2022/05/27 09:21:33;;;;;;;14.68;2.75;;;20.30;62.20;;;;;;9169840;19;20025;-73
2022/05/27 09:24:50;;;;;;;10.85;2.10;;;20.30;62.10;;;;;;9172543;19;20364;-73
2022/05/27 09:28:07;;;;;;;15.77;3.22;;;20.40;61.80;;;;;;9175290;19;20045;-70
2022/05/27 09:31:21;;;;;;;12.57;2.63;;;20.50;61.70;;;;;;9175507;19;20048;-74
2022/05/27 09:34:28;;;;;;;;;;;20.60;61.30;;;;;;9177340;19;20061;-72
2022/05/27 09:37:39;;;;;;;11.23;2.50;;;20.60;62.10;;;;;;9176764;19;19966;-73
2022/05/27 09:40:52;;;;;;;9.65;2.70;;;20.60;61.30;;;;;;9177860;19;20010;-73
2022/05/27 09:44:10;;;;;;;10.93;2.80;;;20.70;61.10;;;;;;9173222;19;20471;-69
2022/05/27 09:47:18;;;;;;;11.13;2.47;;;20.70;61.10;;;;;;9174704;19;20022;-71
2022/05/27 09:50:31;;;;;;;13.65;2.42;;;20.80;60.80;;;;;;9176841;19;20017;-74
2022/05/27 09:53:41;;;;;;;13.18;2.83;;;20.90;60.70;;;;;;9175820;19;20010;-74
2022/05/27 09:56:59;;;;;;;14.85;2.45;;;21.00;60.40;;;;;;9177843;19;20021;-73
2022/05/27 10:00:11;;;;;;;13.02;2.72;;;21.00;59.80;;;;;;9176534;19;20360;-75
2022/05/27 10:03:36;;;;;;;13.40;2.53;;;21.10;59.80;;;;;;9176935;19;20015;-74
2022/05/27 10:06:44;;;;;;;9.75;2.15;;;21.10;59.30;;;;;;9174994;19;20033;-75
2022/05/27 10:09:49;;;;;;;12.80;3.70;;;21.00;59.50;;;;;;9178934;19;20018;-74
2022/05/27 10:12:55;;;;;;;16.55;3.17;;;21.00;59.40;;;;;;9170436;19;20021;-75
2022/05/27 10:16:08;;;;;;;12.73;2.25;;;20.90;59.40;;;;;;9170715;19;20593;-72
2022/05/27 10:19:17;;;;;;;16.85;2.40;;;20.80;59.20;;;;;;9170539;19;20472;-76
2022/05/27 10:22:25;;;;;;;18.35;2.65;;;20.70;59.10;;;;;;9168260;19;20085;-72
2022/05/27 10:25:37;;;;;;;18.02;2.75;;;20.70;59.10;;;;;;9173239;19;20372;-76
2022/05/27 10:28:42;;;;;;;20.52;3.90;;;20.70;58.90;;;;;;9172805;19;20022;-73
2022/05/27 10:31:56;;;;;;;15.40;2.03;;;20.60;59.00;;;;;;9171442;19;20025;-73
2022/05/27 10:35:08;;;;;;;11.90;2.65;;;20.70;58.60;;;;;;9176548;19;20018;-74
2022/05/27 10:38:30;;;;;;;9.57;2.28;;;20.60;58.50;;;;;;9182927;19;20401;-72
2022/05/27 10:41:53;;;;;;;15.80;2.35;;;20.60;58.20;;;;;;9179520;19;20025;-71
2022/05/27 10:45:19;;;;;;;9.02;2.13;;;20.60;58.00;;;;;;9181334;19;20775;-72
2022/05/27 10:48:56;;;;;;;13.25;2.03;;;20.60;57.90;;;;;;9188118;19;20024;-69
2022/05/27 10:52:15;;;;;;;13.93;2.72;;;20.60;57.90;;;;;;9179811;19;20581;-71
2022/05/27 10:55:32;;;;;;;9.70;2.17;;;20.60;58.00;;;;;;9183685;19;20019;-72
2022/05/27 11:02:35;;;;;;;9.60;2.10;;;20.60;57.50;;;;;;9184298;19;20027;-71
2022/05/27 11:05:57;;;;;;;10.60;2.42;;;20.60;57.60;;;;;;9181959;19;20078;-70
2022/05/27 11:09:21;;;;;;;12.00;2.65;;;20.70;57.60;;;;;;9179377;19;20034;-70
2022/05/27 11:15:10;;;;;;;14.48;2.38;;;20.80;57.50;;;;;;9184216;19;20135;-72
2022/05/27 11:16:09;;;;;;;11.23;2.28;;;20.80;57.50;;;;;;9178797;19;20313;-71
2022/05/27 11:19:36;;;;;;;20.35;3.47;;;20.90;57.20;;;;;;9180653;19;20022;-73
2022/05/27 11:22:50;;;;;;;13.55;2.38;;;20.90;56.90;;;;;;9177087;19;20021;-72
2022/05/27 11:26:10;;;;;;;11.48;2.08;;;21.00;56.90;;;;;;9178241;19;20018;-74
2022/05/27 11:29:38;;;;;;;13.65;2.28;;;21.00;56.90;;;;;;9179786;19;20022;-72
2022/05/27 11:33:02;;;;;;;15.73;2.85;;;21.10;56.80;;;;;;9183543;19;20011;-76
2022/05/27 11:36:15;;;;;;;;;;;21.20;57.00;;;;;;9184381;19;20011;-74
2022/05/27 11:39:38;;;;;;;8.35;2.10;;;21.30;57.60;;;;;;9182691;19;19930;-72
2022/05/27 11:43:20;;;;;;;7.90;1.92;;;21.40;56.90;;;;;;9182883;19;20014;-74
2022/05/27 11:46:52;;;;;;;16.55;2.70;;;21.40;56.30;;;;;;9181970;19;20019;-69
2022/05/27 11:50:18;;;;;;;9.20;2.25;;;21.50;56.20;;;;;;9182388;19;20043;-70
2022/05/27 11:53:40;;;;;;;18.35;2.63;;;21.50;56.00;;;;;;9187961;19;20387;-69
2022/05/27 11:56:57;;;;;;;10.93;2.53;;;21.50;56.00;;;;;;9185074;19;20480;-70
2022/05/27 12:00:10;;;;;;;14.10;2.78;;;21.50;55.70;;;;;;9180872;19;20019;-71
2022/05/27 12:03:21;;;;;;;11.35;2.20;;;21.50;55.60;;;;;;9180294;19;20077;-69
2022/05/27 12:06:34;;;;;;;21.30;2.80;;;21.40;55.50;;;;;;9180323;19;20049;-72
2022/05/27 12:09:44;;;;;;;12.18;2.97;;;21.30;55.30;;;;;;9181633;19;20014;-73
2022/05/27 12:12:55;;;;;;;15.23;3.15;;;21.20;55.40;;;;;;9180812;19;20408;-73
2022/05/27 12:16:06;;;;;;;19.60;3.42;;;21.10;55.40;;;;;;9178234;19;20052;-73
2022/05/27 12:19:18;;;;;;;13.65;2.63;;;21.00;55.50;;;;;;9176952;19;20471;-75
2022/05/27 12:22:27;;;;;;;15.05;3.40;;;20.90;55.60;;;;;;9173862;19;20018;-72
2022/05/27 12:25:35;;;;;;;16.63;2.95;;;20.90;55.70;;;;;;9176024;19;20018;-74
2022/05/27 12:28:45;;;;;;;12.10;2.78;;;20.90;55.60;;;;;;9174085;19;20134;-70
2022/05/27 12:31:54;;;;;;;18.45;3.17;;;20.80;55.40;;;;;;9174833;19;20036;-71
2022/05/27 12:35:22;;;;;;;9.15;2.05;;;20.70;55.50;;;;;;9176682;19;20018;-71
2022/05/27 12:38:30;;;;;;;14.10;2.30;;;20.70;55.50;;;;;;9173485;19;20023;-72
2022/05/27 12:41:38;;;;;;;15.05;2.63;;;20.70;55.70;;;;;;9174516;19;20033;-69
2022/05/27 12:44:44;;;;;;;13.70;2.60;;;20.70;55.70;;;;;;9177096;19;20014;-74
2022/05/27 12:47:54;;;;;;;17.85;3.22;;;20.70;55.70;;;;;;9176394;19;20018;-71
2022/05/27 12:51:01;;;;;;;12.52;2.42;;;20.70;55.60;;;;;;9181904;19;20480;-71
2022/05/27 12:54:08;;;;;;;12.38;2.85;;;20.70;55.50;;;;;;9183697;19;20045;-71
2022/05/27 13:01:00;;;;;;;8.75;2.05;;;20.70;55.10;;;;;;9174541;19;20019;-73
2022/05/27 13:04:30;;;;;;;;;;;20.70;55.40;;;;;;9178140;19;20015;-70
2022/05/27 13:07:56;;;;;;;8.80;1.90;;;20.70;55.70;;;;;;9181046;19;19974;-69
2022/05/27 13:11:01;;;;;;;14.85;2.42;;;20.70;55.30;;;;;;9181865;19;20015;-67
2022/05/27 13:14:18;;;;;;;15.07;2.50;;;20.70;55.50;;;;;;9180423;19;20029;-68
2022/05/27 13:17:37;;;;;;;12.05;2.47;;;20.70;55.20;;;;;;9180696;19;20014;-70
2022/05/27 13:21:00;;;;;;;12.80;2.67;;;20.70;55.30;;;;;;9176568;19;20031;-68
2022/05/27 13:24:08;;;;;;;12.07;2.20;;;20.60;55.00;;;;;;9176811;19;20360;-71
2022/05/27 13:27:26;;;;;;;15.30;2.63;;;20.60;55.10;;;;;;9177232;19;20021;-69
2022/05/27 13:30:54;;;;;;;20.75;3.42;;;20.60;55.10;;;;;;9179997;19;20030;-67
2022/05/27 13:34:05;;;;;;;22.00;2.88;;;20.70;55.10;;;;;;9178220;19;20044;-70
2022/05/27 13:37:19;;;;;;;8.15;2.13;;;20.80;55.20;;;;;;9177359;19;20019;-69
2022/05/27 13:40:28;;;;;;;17.75;2.78;;;20.80;54.80;;;;;;9179245;19;20029;-69
2022/05/27 13:43:39;;;;;;;13.30;2.47;;;20.80;54.70;;;;;;9178536;19;20026;-68
2022/05/27 13:46:49;;;;;;;15.38;2.83;;;20.80;55.20;;;;;;9177239;19;20030;-70
2022/05/27 13:49:55;;;;;;;12.75;2.33;;;20.80;54.50;;;;;;9178152;19;20356;-69
2022/05/27 13:53:22;;;;;;;16.85;2.58;;;20.70;54.40;;;;;;9177741;19;20014;-69
2022/05/27 13:56:37;;;;;;;12.05;2.38;;;20.70;54.20;;;;;;9177658;19;20061;-69
2022/05/27 13:59:48;;;;;;;7.97;2.30;;;20.60;54.30;;;;;;9178839;19;20014;-68
2022/05/27 14:02:54;;;;;;;8.13;2.22;;;20.60;54.20;;;;;;9181949;19;20015;-74
2022/05/27 14:06:03;;;;;;;13.60;2.85;;;20.50;54.20;;;;;;9179902;19;20018;-70
2022/05/27 14:09:23;;;;;;;9.25;2.00;;;20.40;54.20;;;;;;9184113;19;20060;-72
2022/05/27 14:12:34;;;;;;;17.27;3.38;;;20.30;54.20;;;;;;9190315;19;20017;-78
2022/05/27 14:15:40;;;;;;;12.68;3.13;;;20.20;54.30;;;;;;9178106;19;20364;-74
2022/05/27 14:18:45;;;;;;;14.50;2.75;;;20.20;54.50;;;;;;9181334;19;20010;-74
2022/05/27 14:25:31;;;;;;;9.23;2.45;;;20.00;54.40;;;;;;9178841;19;20019;-72
2022/05/27 14:28:39;;;;;;;12.65;2.40;;;19.90;54.50;;;;;;9178304;19;20022;-73
2022/05/27 14:31:44;;;;;;;16.85;3.15;;;19.90;54.70;;;;;;9182731;19;20018;-70
2022/05/27 14:34:58;;;;;;;14.95;2.70;;;19.80;54.60;;;;;;9179457;19;20022;-72
2022/05/27 14:38:08;;;;;;;17.70;2.78;;;19.70;54.60;;;;;;9181207;19;20014;-73
2022/05/27 14:41:18;;;;;;;15.77;3.08;;;19.60;54.60;;;;;;9182146;19;20057;-74
2022/05/27 14:44:27;;;;;;;11.80;2.28;;;19.50;54.70;;;;;;9174808;19;20010;-74
2022/05/27 14:47:36;;;;;;;22.48;2.92;;;19.40;54.70;;;;;;9177314;19;20011;-74
2022/05/27 14:50:41;;;;;;;15.40;3.00;;;19.30;54.70;;;;;;9177762;19;20014;-72
2022/05/27 14:53:47;;;;;;;11.40;2.75;;;19.20;54.80;;;;;;9179355;19;20028;-74
2022/05/27 14:57:15;;;;;;;15.43;2.88;;;19.20;54.80;;;;;;9175000;19;20537;-75
2022/05/27 15:00:30;;;;;;;14.32;2.40;;;19.10;54.80;;;;;;9177250;19;20025;-74
2022/05/27 15:03:39;;;;;;;10.73;2.05;;;19.00;54.80;;;;;;9177002;19;20348;-72
2022/05/27 15:06:49;;;;;;;20.38;3.13;;;18.90;55.00;;;;;;9176322;19;20022;-71
2022/05/27 15:10:04;;;;;;;12.75;2.08;;;18.90;55.00;;;;;;9177013;19;20025;-76
2022/05/27 15:13:31;;;;;;;11.55;2.10;;;18.80;54.90;;;;;;9172107;19;20022;-70
2022/05/27 15:16:40;;;;;;;20.90;2.42;;;18.80;54.90;;;;;;9176926;19;20089;-73
2022/05/27 15:19:50;;;;;;;18.13;2.40;;;18.70;55.00;;;;;;9171744;19;20026;-75
2022/05/27 15:23:00;;;;;;;10.93;2.28;;;18.70;55.20;;;;;;9172831;19;20018;-73
2022/05/27 15:36:18;;;;;;;9.23;2.10;;;18.60;55.10;;;;;;9176185;19;20019;-70
2022/05/27 15:39:23;;;;;;;11.48;1.85;;;18.60;55.20;;;;;;9170808;19;20015;-69
2022/05/27 15:42:29;;;;;;;15.27;2.45;;;18.50;55.10;;;;;;9171161;19;20101;-70
2022/05/27 15:45:36;;;;;;;11.40;2.63;;;18.40;55.10;;;;;;9175932;19;20018;-69
2022/05/27 15:48:42;;;;;;;11.05;2.58;;;18.40;55.20;;;;;;9178389;19;20044;-70
2022/05/27 15:51:50;;;;;;;14.38;2.40;;;18.40;55.20;;;;;;9180584;19;20018;-71
2022/05/27 15:54:55;;;;;;;12.15;2.50;;;18.40;55.30;;;;;;9179685;19;20669;-69
2022/05/27 15:58:00;;;;;;;13.07;2.53;;;18.30;55.30;;;;;;9179278;19;20018;-72
2022/05/27 16:01:10;;;;;;;20.00;2.85;;;18.30;55.30;;;;;;9178888;19;20577;-69
2022/05/27 16:04:18;;;;;;;16.35;2.40;;;18.20;55.30;;;;;;9178357;19;20019;-71
2022/05/27 16:07:24;;;;;;;11.75;2.20;;;18.10;55.30;;;;;;9178827;19;20090;-70
2022/05/27 16:10:33;;;;;;;12.55;2.28;;;18.10;55.50;;;;;;9181177;19;20022;-73
2022/05/27 16:13:39;;;;;;;13.00;2.28;;;18.00;55.50;;;;;;9179776;19;20094;-69
2022/05/27 16:20:04;;;;;;;8.77;2.30;;;17.90;55.50;;;;;;9179179;19;20011;-69
2022/05/27 16:23:12;;;;;;;16.65;2.67;;;17.80;55.70;;;;;;9171554;19;20022;-70
2022/05/27 16:26:17;;;;;;;14.00;2.50;;;17.80;55.70;;;;;;9177076;19;20682;-71
2022/05/27 16:29:22;;;;;;;18.30;2.63;;;17.70;55.80;;;;;;9178584;19;20094;-71
2022/05/27 16:32:29;;;;;;;18.60;2.25;;;17.70;56.00;;;;;;9177884;19;20026;-70
2022/05/27 16:35:35;;;;;;;14.20;2.15;;;17.70;56.00;;;;;;9180347;19;20099;-70
2022/05/27 16:38:40;;;;;;;19.33;2.58;;;17.60;56.00;;;;;;9178768;19;20022;-69
2022/05/27 16:41:45;;;;;;;12.30;2.20;;;17.60;56.10;;;;;;9177884;19;20029;-69
2022/05/27 16:44:50;;;;;;;8.32;1.95;;;17.50;56.20;;;;;;9177992;19;20469;-70
2022/05/27 16:47:58;;;;;;;8.60;1.90;;;17.50;56.20;;;;;;9177654;19;20131;-70
2022/05/27 16:51:03;;;;;;;13.32;2.53;;;17.40;56.10;;;;;;9177642;19;20356;-70
2022/05/27 16:54:10;;;;;;;10.23;2.08;;;17.40;56.20;;;;;;9178650;19;20082;-69
2022/05/27 16:57:16;;;;;;;12.55;2.72;;;17.40;56.30;;;;;;9178180;19;20012;-70
2022/05/27 17:00:25;;;;;;;11.10;2.42;;;17.40;56.30;;;;;;9176718;19;20029;-70
2022/05/27 17:03:33;;;;;;;11.63;2.17;;;17.30;56.30;;;;;;9173431;19;20010;-70
2022/05/27 17:06:38;;;;;;;9.10;2.22;;;17.30;56.30;;;;;;9176639;19;20015;-71
2022/05/27 17:09:45;;;;;;;10.15;1.95;;;17.30;56.40;;;;;;9178135;19;20030;-71
2022/05/27 17:12:51;;;;;;;12.70;2.25;;;17.20;56.40;;;;;;9176779;19;20098;-71
2022/05/27 17:15:56;;;;;;;12.00;2.25;;;17.20;56.50;;;;;;9168526;19;20033;-73
2022/05/27 17:19:04;;;;;;;14.43;2.28;;;17.20;56.50;;;;;;9167152;19;20193;-70
2022/05/27 17:22:09;;;;;;;11.50;2.25;;;17.20;56.50;;;;;;9165115;19;20057;-70
2022/05/27 17:25:18;;;;;;;15.55;2.47;;;17.10;56.50;;;;;;9167977;19;20375;-72